Lewistown, MT (59457)

9:19 AM MDT on April 21, 2015 (GMT -0600)
Round House | | Change Station
CLOSE
Current Station
Personal Weather Station
Location: Lewistown, MT
Elevation: 3986 ft
Nearby Weather Stations

Elev 3986 ft 47.05 °N, 109.42 °W | Updated 450 days ago

Partly Cloudy
Partly Cloudy
56 °F
Feels Like 56 °F
N
2
Wind Variable Wind from ENE
Gusts mph

Today
High -- | Low -- °F
--% Chance of Precip.
Yesterday
High -- | Low -- °F
Precip. -- in
6:19 AM 8:14 PM
Waxing Crescent, 11% visible
Pressure 29.89 in
Visibility 10.0 miles
Clouds Scattered Clouds 8500 ft
Dew Point 32 °F
Humidity 41%
Rainfall in
Snow Depth Not available.
UV 0.0 out of 12
Pollen 10.00 out of 12
Air Quality Not available.
Flu Activity Regional
METAR KLWT 211454Z AUTO 12004KT 10SM SCT085 11/M01 A2990 RMK AO2 SLP120 T01061011 51007

More Conditions Fewer Conditions

Pressure 29.89 in
Visibility 10.0 miles
Clouds Scattered Clouds 8500 ft
Dew Point 32 °F
Humidity 41%
Rainfall in
Snow Depth Not available.
UV 0.0 out of 12
Pollen 10.00 out of 12
Air Quality Not available.
Flu Activity Regional
METAR KLWT 211454Z AUTO 12004KT 10SM SCT085 11/M01 A2990 RMK AO2 SLP120 T01061011 51007

More Conditions Fewer Conditions

10-Day Weather Forecast

Almanac

Astronomy

Apr. 21, 2015 Rise Set
Actual Time
Civil Twilight
Nautical Twilight
Astronomical Twilight
Moon
Length of Visible Light
Length of Day
Tomorrow will be .
, % of the Moon is Illuminated

Today's Extremes

State Highs State Lows

Community

WunderPhotos

Upload Photos

1,815,419 photos uploaded!

WunderBlogs® & News

Nearby

Air Quality

  Air Quality AQ Index Pollutant
Not available.

Snow Depth

Station Depth Elevation

Earthquake Activity

City Distance Mag. Time & Date
Minimum magnitude displayed is 2.5.

Coastal Water Temperatures

Place Temperature

Stations

Nearby Weather Stations

Station Location Temp. Windchill Dew Point Humidity Wind Precip. Elev Updated Type